Aviation Digital Data Service (ADDS)

Output produced by TAFs form (2012 UTC 05 March 2015)
found at http://www.aviationweather.gov/adds/tafs/
 
KAPA 051953Z VRB03KT 10SM FEW100 BKN140 BKN200 06/M15 A3017 RMK AO2 SLP261 ACSL DSNT W T00561150
KAPA 051735Z 0518/0618 20006KT P6SM BKN200 
     FM052100 06006KT P6SM BKN200 
     FM060200 19008KT P6SM SCT200 
     FM061200 21008KT P6SM FEW200